Nearby METAR Reports

 

KSJC - San Jose, California, USA
Distance from station: NE 9mi, 14km
Updated: Fri, 23-Feb-2024 8:53am PST
Overcast
Overcast
 Wind from calm
Wind: Calm
Temperature: 52°F , 11°C
Dew Point: 45°F , 7°C
Humidity: 77%
Barometer: 30.17 inHg , 1021.7 hPa
Clouds: Overcast
Visibility: 10 miles , 16 km
Cloud details: Few Clouds 5000 ft
Mostly cloudy 7000 ft
Overcast 10000 ft
2024/02/23 16:53 KSJC 231653Z 00000KT 10SM FEW050 BKN070 OVC100 11/07 A3017 RMK AO2 SLP214 T01060072
KNUQ - Moffett Nas/Mtn, California, USA
Distance from station: N 9mi, 14km
Updated: Fri, 23-Feb-2024 9:35am PST
Clear
Clear
 Wind from WSW
Wind: WSW 3 mph , 6 km/h
Temperature: 54°F , 12°C
Dew Point: 46°F , 8°C
Humidity: 77%
Barometer: 30.16 inHg , 1021.3 hPa
Clouds: Clear
Visibility: 10 miles , 16 km
2024/02/23 17:35 KNUQ 231735Z AUTO 24003KT 10SM CLR 12/08 A3016 RMK AO2
KPAO - Palo Alto, California, USA
Distance from station: NNW 14mi, 23km
Updated: Fri, 23-Feb-2024 9:47am PST
Mostly cloudy
Mostly cloudy
 Wind from varies
Wind: varies 5 mph , 7 km/h
Temperature: 54°F , 12°C
Dew Point: 46°F , 8°C
Humidity: 77%
Barometer: 30.16 inHg , 1021.3 hPa
Clouds: Mostly cloudy
Visibility: 10 miles , 16 km
Cloud details: Mostly cloudy 10000 ft
2024/02/23 17:47 KPAO 231747Z VRB04KT 10SM BKN100 12/08 A3016
 
KRHV - San Jose/Reid, California, USA
Distance from station: ENE 12mi, 19km
Updated: Fri, 23-Feb-2024 7:47am PST
NOT Current
Mostly cloudy
Mostly cloudy
 Wind from calm
Wind: Calm
Temperature: 45°F , 7°C
Dew Point: 43°F , 6°C
Humidity: 93%
Barometer: 30.18 inHg , 1022 hPa
Clouds: Mostly cloudy
Visibility: 10 miles , 16 km
Cloud details: Mostly cloudy 12000 ft
2024/02/23 15:47 KRHV 231547Z 00000KT 10SM BKN120 07/06 A3018
KOAK - Oakland, California, USA
Distance from station: NNW 31mi, 50km
Updated: Fri, 23-Feb-2024 8:53am PST
Mostly cloudy
Mostly cloudy
 Wind from ESE
Wind: ESE 6 mph , 9 km/h
Temperature: 54°F , 12°C
Dew Point: 46°F , 8°C
Humidity: 77%
Barometer: 30.18 inHg , 1022 hPa
Clouds: Mostly cloudy
Visibility: 10 miles , 16 km
Cloud details: Partly cloudy 16000 ft
Mostly cloudy 20000 ft
2024/02/23 16:53 KOAK 231653Z 12005KT 10SM SCT160 BKN200 12/08 A3018 RMK AO2 SLP218 T01220078
KSQL - San Carlos Airpo, California, USA
Distance from station: NW 21mi, 34km
Updated: Fri, 23-Feb-2024 8:47am PST
Clear
Clear
 Wind from calm
Wind: Calm
Temperature: 50°F , 10°C
Dew Point: 46°F , 8°C
Humidity: 88%
Barometer: 30.18 inHg , 1022 hPa
Clouds: Clear
Visibility: 10 miles , 16 km
2024/02/23 16:47 KSQL 231647Z 00000KT 10SM CLR 10/08 A3018
 
KSFO - San Francisco, California, USA
Distance from station: NW 30mi, 49km
Updated: Fri, 23-Feb-2024 8:56am PST
Overcast
Overcast
 Wind from ESE
Wind: ESE 6 mph , 9 km/h
Temperature: 54°F , 12°C
Dew Point: 48°F , 9°C
Humidity: 82%
Barometer: 30.16 inHg , 1021.3 hPa
Clouds: Overcast
Visibility: 10 miles , 16 km
Cloud details: Mostly cloudy 15000 ft
Overcast 25000 ft
2024/02/23 16:56 KSFO 231656Z 11005KT 10SM BKN150 OVC250 12/09 A3016 RMK AO2 SLP214 T01170089
KE16 - San Martin, California, USA
Distance from station: ESE 27mi, 43km
Updated: Fri, 23-Feb-2024 9:35am PST
Clear
Clear
 Wind from WNW
Wind: WNW 5 mph , 7 km/h
Temperature: 50°F , 10°C
Wind Chill: 48°F , 9°C
Dew Point: 48°F , 9°C
Humidity: 94%
Barometer: 30.17 inHg , 1021.7 hPa
Clouds: Clear
Visibility: 10 miles , 16 km
2024/02/23 17:35 KE16 231735Z AUTO 30004KT 10SM CLR 10/09 A3017 RMK AO2 PWINO PNO
KWVI - Watsonville, California, USA
Distance from station: SSE 27mi, 44km
Updated: Fri, 23-Feb-2024 8:53am PST
Clear
Clear
 Wind from E
Wind: E 3 mph , 6 km/h
Temperature: 54°F , 12°C
Dew Point: 46°F , 8°C
Humidity: 77%
Barometer: 30.13 inHg , 1020.3 hPa
Clouds: Clear
Visibility: 10 miles , 16 km
2024/02/23 16:53 KWVI 231653Z AUTO 10003KT 10SM CLR 12/08 A3013 RMK AO2 SLP203 T01170083
 
KHAF - Half Moon Bay, California, USA
Distance from station: WNW 31mi, 50km
Updated: Fri, 23-Feb-2024 9:35am PST
Clear
Clear
 Wind from E
Wind: E 10 mph , 17 km/h, Gust: 24 mph , 39 km/h
Temperature: 57°F , 14°C
Dew Point: 45°F , 7°C
Humidity: 63%
Barometer: 30.11 inHg , 1019.6 hPa
Clouds: Clear
Visibility: 9 miles , 14 km
2024/02/23 17:35 KHAF 231735Z AUTO 08009G21KT 9SM CLR 14/07 A3011 RMK AO2
KHWD - Hayward, California, USA
Distance from station: N 28mi, 44km
Updated: Fri, 23-Feb-2024 8:54am PST
Clear
Clear
 Wind from ENE
Wind: ENE 7 mph , 11 km/h
Temperature: 57°F , 14°C
Dew Point: 46°F , 8°C
Humidity: 67%
Barometer: 30.17 inHg , 1021.7 hPa
Clouds: Clear
Visibility: 10 miles , 16 km
2024/02/23 16:54 KHWD 231654Z 06006KT 10SM CLR 14/08 A3017 RMK AO2 SLP225 T01390078
KLVK - Livermore, California, USA
Distance from station: NNE 31mi, 51km
Updated: Fri, 23-Feb-2024 8:53am PST
Clear
Clear
 Wind from E
Wind: E 12 mph , 19 km/h
Temperature: 52°F , 11°C
Dew Point: 46°F , 8°C
Humidity: 82%
Barometer: 30.18 inHg , 1022 hPa
Clouds: Clear
Visibility: 10 miles , 16 km
2024/02/23 16:53 KLVK 231653Z 08010KT 10SM CLR 11/08 A3018 RMK AO2 SLP219 T01110078